Milano Linate Airport

LIML · Lombardy, 意大利

使用的METAR站距离机场42 km。
罗盘
风向 的 Milano Linate Airport 17/35
风: 2 kt, 1 beaufort

2 kt

改变
0 ft 1.000 2.000 3.000 4.000 5.000
Cloud Cloud Cloud Cloud
SCT 500
Cloud Cloud Cloud Cloud Cloud Cloud
BKN 3.500
METAR LIME 020850Z VRB02KT 4000 -RA BR SCT005 BKN035 10/09 Q1009 NOSIG

METAR Milano Linate Airport - LIML/LIN

Milano Linate Airport是,意大利中的中型机场。 该机场位于纬度45,44525和经度9,27705。 该机场有一条跑道: 17/35. 本场的ICAO机场代码为LIML。 该机场的IATA代码为LIN。 机场在Milano FIR中。

该航空气象观测是针对Milan Bergamo Airport在2024年3月2日 09:50, 当地时间进行的。

机场观察

可变方向的风很小或没有风。

可见度为4 km。

有疏云,零星散落的云朵在500 ft的高度 和 碎云在3.500 ft的高度。 破损或更高的上限为3.500 ft。

当前天气为光 雨, 薄雾。 温度为10 °C,阵风为9 °C。 露点为9 °C,相对湿度为94%。 海平面上的气压为1009 hPa (QNH)。

白天

今天,太阳从06:58升起,在18:11降落。 这适用于Milano Linate Airport,世界夏令时可能有所不同。 当地时间与世界标准时间之间的时差为+1 小时。 当前,没有夏令时有效。

公司介绍

我们没有关于这个机场的公司信息。

体会

到Vliegles.nl去找飞行课程,跳伞和其他飞行体验。 浏览页面,了解Milano Linate Airport附近所有可用的活动。 你也可以使用搜索功能来寻找你所在地附近的特定飞行课程、跳伞或其他飞行体验。

跑道

Id 标题 侧风 逆风 侧风 %
17/35 175°-355° 2 kt 9 %

逆风成分最大的方向会被突出显示,并用于横风计算。 这并不一定意味着这个方向在使用。

乌云

500 ft SCT 疏云,零星散落的云朵
3.500 ft BKN 碎云

温度 & 天气

天气 光 雨
薄雾
温度 10 °C
露点 9 °C
相对湿度 94%
风寒 9 °C
Kp-index 0 (0-9)

白天

日出
06:56
中午
12:33
日落
18:09 (7:42)

小工具

你想在你的网站上有一个关于Milano Linate Airport的当前航空天气(METAR)的小部件吗?

显示HTML代码
?>